Time;durP1;ratioP1;P1;durP2;ratioP2;P2;SDS_P1;SDS_P2;PMS_P1;PMS_P2;Temp;Humidity;BMP_temperature;BMP_pressure;BME280_temperature;BME280_humidity;BME280_pressure;Samples;Min_cycle;Max_cycle;Signal;HPM_P1;HPM_P2
2022/08/03 00:01:42;;;;;;;7.22;2.08;;;21.20;99.90;;;;;;5034877;28;20103;-61
2022/08/03 00:04:09;;;;;;;6.38;2.42;;;21.20;99.90;;;;;;5040883;28;20041;-61
2022/08/03 00:06:36;;;;;;;8.40;2.72;;;21.20;99.90;;;;;;5046686;28;20076;-61
2022/08/03 00:09:03;;;;;;;8.20;2.38;;;21.20;99.90;;;;;;5049793;28;20049;-61
2022/08/03 00:11:29;;;;;;;10.35;2.35;;;21.10;99.90;;;;;;5048541;28;20045;-61
2022/08/03 00:13:55;;;;;;;7.10;2.42;;;21.10;99.90;;;;;;5049105;28;20052;-61
2022/08/03 00:16:20;;;;;;;8.15;2.40;;;21.10;99.90;;;;;;5049533;28;20037;-60
2022/08/03 00:18:46;;;;;;;6.47;2.25;;;21.10;99.90;;;;;;5029895;28;20068;-62
2022/08/03 00:21:12;;;;;;;6.65;2.38;;;21.00;99.90;;;;;;5048532;28;20072;-61
2022/08/03 00:23:37;;;;;;;8.52;2.72;;;21.00;99.90;;;;;;5050511;28;20106;-61
2022/08/03 00:26:03;;;;;;;6.80;2.25;;;21.00;99.90;;;;;;5049375;28;20047;-61
2022/08/03 00:28:29;;;;;;;7.90;2.55;;;21.00;99.90;;;;;;5050678;28;20075;-61
2022/08/03 00:30:55;;;;;;;8.48;2.30;;;20.90;99.90;;;;;;5053962;28;20052;-61
2022/08/03 00:33:21;;;;;;;9.93;2.70;;;21.00;99.90;;;;;;5053868;28;20037;-61
2022/08/03 00:35:47;;;;;;;9.65;2.42;;;20.90;99.90;;;;;;5052217;28;20037;-61
2022/08/03 00:38:13;;;;;;;7.40;2.50;;;20.90;99.90;;;;;;5052957;28;20136;-61
2022/08/03 00:40:39;;;;;;;13.90;2.78;;;20.90;99.90;;;;;;5052467;28;20391;-62
2022/08/03 00:43:06;;;;;;;8.15;2.35;;;20.90;99.90;;;;;;5053763;28;20068;-61
2022/08/03 00:45:40;;;;;;;6.43;2.15;;;20.80;99.90;;;;;;5052268;28;20098;-61
2022/08/03 00:48:08;;;;;;;9.35;2.30;;;20.80;99.90;;;;;;5053385;28;20111;-63
2022/08/03 00:50:35;;;;;;;7.88;2.40;;;20.80;99.90;;;;;;5053452;28;20151;-61
2022/08/03 00:53:03;;;;;;;5.57;2.85;;;20.80;99.90;;;;;;5053167;28;20121;-62
2022/08/03 00:55:29;;;;;;;6.63;2.10;;;20.80;99.90;;;;;;5053240;28;20048;-61
2022/08/03 00:57:56;;;;;;;13.38;2.40;;;20.70;99.90;;;;;;5053132;28;20054;-61
2022/08/03 01:00:23;;;;;;;6.65;2.42;;;20.70;99.90;;;;;;5053211;28;20124;-61
2022/08/03 01:02:49;;;;;;;6.97;2.10;;;20.70;99.90;;;;;;5053459;28;20049;-61
2022/08/03 01:05:16;;;;;;;9.73;2.50;;;20.70;99.90;;;;;;5055949;28;20033;-61
2022/08/03 01:07:59;;;;;;;7.40;2.75;;;20.70;99.90;;;;;;5053021;28;20118;-61
2022/08/03 01:10:59;;;;;;;9.48;2.47;;;20.70;99.90;;;;;;5053158;28;20076;-61
2022/08/03 01:13:43;;;;;;;6.60;2.42;;;20.60;99.90;;;;;;5049209;28;20049;-61
2022/08/03 01:16:16;;;;;;;;;;;20.60;99.90;;;;;;5053541;28;20048;-61
2022/08/03 01:19:24;;;;;;;8.60;2.70;;;20.50;99.90;;;;;;5052794;28;19917;-61
2022/08/03 01:22:06;;;;;;;10.70;2.42;;;20.50;99.90;;;;;;5063150;28;20056;-61
2022/08/03 01:25:22;;;;;;;6.28;2.20;;;20.50;99.90;;;;;;5045908;28;20053;-61
2022/08/03 01:28:03;;;;;;;7.20;2.00;;;20.50;99.90;;;;;;5034675;28;20057;-61
2022/08/03 01:30:32;;;;;;;7.60;2.75;;;20.50;99.90;;;;;;5050182;28;20102;-61
2022/08/03 01:33:02;;;;;;;5.43;2.08;;;20.40;99.90;;;;;;5053114;28;20044;-61
2022/08/03 01:35:33;;;;;;;4.93;2.03;;;20.40;99.90;;;;;;5052097;28;20125;-61
2022/08/03 01:38:03;;;;;;;8.70;2.80;;;20.40;99.90;;;;;;5052530;28;20053;-61
2022/08/03 01:40:32;;;;;;;7.15;2.25;;;20.40;99.90;;;;;;5046295;28;20060;-61
2022/08/03 01:43:01;;;;;;;7.63;2.22;;;20.40;99.90;;;;;;5052557;28;20033;-61
2022/08/03 01:45:28;;;;;;;10.00;2.90;;;20.30;99.90;;;;;;5051647;28;20506;-61
2022/08/03 01:47:55;;;;;;;7.80;2.25;;;20.30;99.90;;;;;;5052904;28;20143;-61
2022/08/03 01:50:26;;;;;;;7.97;2.17;;;20.30;99.90;;;;;;5052491;28;20512;-61
2022/08/03 01:52:53;;;;;;;4.50;1.92;;;20.30;99.90;;;;;;5052540;28;20060;-61
2022/08/03 01:55:21;;;;;;;7.25;2.17;;;20.30;99.90;;;;;;5051986;28;20045;-61
2022/08/03 01:57:49;;;;;;;12.68;3.63;;;20.20;99.90;;;;;;5050642;28;20053;-61
2022/08/03 02:00:16;;;;;;;4.28;2.05;;;20.20;99.90;;;;;;5052523;28;20411;-59
2022/08/03 02:02:43;;;;;;;6.72;2.10;;;20.20;99.90;;;;;;5050480;28;20059;-59
2022/08/03 02:05:10;;;;;;;5.97;2.22;;;20.20;99.90;;;;;;5051004;28;20044;-60
2022/08/03 02:07:38;;;;;;;8.55;2.35;;;20.10;99.90;;;;;;5051723;28;20080;-60
2022/08/03 02:10:06;;;;;;;5.32;1.70;;;20.10;99.90;;;;;;5052385;28;20124;-60
2022/08/03 02:12:34;;;;;;;4.47;1.90;;;20.00;99.90;;;;;;5033528;28;20165;-61
2022/08/03 02:15:01;;;;;;;8.82;2.20;;;20.10;99.90;;;;;;5051046;28;20045;-60
2022/08/03 02:17:28;;;;;;;8.07;2.40;;;20.00;99.90;;;;;;5052082;28;20052;-59
2022/08/03 02:19:57;;;;;;;9.00;2.40;;;20.00;99.90;;;;;;5051747;28;20052;-59
2022/08/03 02:22:24;;;;;;;5.95;2.15;;;20.00;99.90;;;;;;5050860;28;20048;-61
2022/08/03 02:24:50;;;;;;;6.15;2.40;;;20.00;99.90;;;;;;5051194;28;20051;-61
2022/08/03 02:27:22;;;;;;;5.57;2.28;;;19.90;99.90;;;;;;5050830;28;20394;-60
2022/08/03 02:29:52;;;;;;;7.03;2.20;;;19.90;99.90;;;;;;5051427;28;20063;-61
2022/08/03 02:32:26;;;;;;;6.82;1.95;;;19.90;99.90;;;;;;5051456;28;20066;-61
2022/08/03 02:34:54;;;;;;;6.22;2.00;;;19.90;99.90;;;;;;5051095;28;20098;-61
2022/08/03 02:37:24;;;;;;;6.57;2.03;;;19.90;99.90;;;;;;5051510;28;20048;-61
2022/08/03 02:39:52;;;;;;;6.95;2.20;;;19.90;99.90;;;;;;5051200;28;20053;-61
2022/08/03 02:42:20;;;;;;;6.13;2.17;;;19.80;99.90;;;;;;5051583;28;20055;-61
2022/08/03 02:44:48;;;;;;;10.77;2.45;;;19.90;99.90;;;;;;5044548;28;20127;-61
2022/08/03 02:47:15;;;;;;;8.65;2.47;;;19.80;99.90;;;;;;5046491;28;20083;-61
2022/08/03 02:49:43;;;;;;;7.10;2.35;;;19.90;99.90;;;;;;5051183;28;20033;-61
2022/08/03 02:52:10;;;;;;;7.90;2.05;;;19.80;99.90;;;;;;5051281;28;20037;-61
2022/08/03 02:54:38;;;;;;;6.53;1.88;;;19.80;99.90;;;;;;5049529;28;20080;-61
2022/08/03 02:57:07;;;;;;;9.55;2.50;;;19.80;99.90;;;;;;5049024;28;20410;-62
2022/08/03 02:59:34;;;;;;;8.52;2.25;;;19.80;99.90;;;;;;5050561;28;20056;-61
2022/08/03 03:02:01;;;;;;;5.82;2.58;;;19.80;99.90;;;;;;5050719;28;20049;-62
2022/08/03 03:04:29;;;;;;;8.13;2.30;;;19.70;99.90;;;;;;5050751;28;20076;-61
2022/08/03 03:06:56;;;;;;;9.13;2.08;;;19.70;99.90;;;;;;5042450;28;20086;-61
2022/08/03 03:09:22;;;;;;;6.43;2.28;;;19.70;99.90;;;;;;5049868;28;20060;-61
2022/08/03 03:11:49;;;;;;;9.95;2.08;;;19.70;99.90;;;;;;5049169;28;20072;-62
2022/08/03 03:14:17;;;;;;;7.18;2.38;;;19.70;99.90;;;;;;5050924;28;20120;-61
2022/08/03 03:16:44;;;;;;;9.00;2.17;;;19.70;99.90;;;;;;5050005;28;20473;-60
2022/08/03 03:19:13;;;;;;;6.68;2.30;;;19.60;99.90;;;;;;5050827;28;20472;-61
2022/08/03 03:21:39;;;;;;;5.43;2.40;;;19.70;99.90;;;;;;5049924;28;20571;-61
2022/08/03 03:24:06;;;;;;;8.23;2.42;;;19.60;99.90;;;;;;5050566;28;20049;-61
2022/08/03 03:26:33;;;;;;;6.32;2.40;;;19.60;99.90;;;;;;5049177;28;20067;-61
2022/08/03 03:29:01;;;;;;;7.78;2.45;;;19.60;99.90;;;;;;5050175;28;20443;-62
2022/08/03 03:31:27;;;;;;;8.52;2.40;;;19.60;99.90;;;;;;5050670;28;20053;-60
2022/08/03 03:33:53;;;;;;;7.68;2.42;;;19.60;99.90;;;;;;5049173;28;20047;-60
2022/08/03 03:36:19;;;;;;;10.27;2.80;;;19.60;99.90;;;;;;5048797;28;20041;-59
2022/08/03 03:38:45;;;;;;;7.03;2.38;;;19.50;99.90;;;;;;5049999;28;20095;-60
2022/08/03 03:41:11;;;;;;;10.50;2.40;;;19.50;99.90;;;;;;5050642;28;20041;-60
2022/08/03 03:43:37;;;;;;;7.15;2.20;;;19.50;99.90;;;;;;5050097;28;20059;-60
2022/08/03 03:46:03;;;;;;;7.85;2.17;;;19.50;99.90;;;;;;5049096;28;20119;-59
2022/08/03 03:48:29;;;;;;;6.78;2.45;;;19.50;99.90;;;;;;5032449;28;20040;-59
2022/08/03 03:50:56;;;;;;;8.20;2.50;;;19.50;99.90;;;;;;5048629;28;20045;-60
2022/08/03 03:53:21;;;;;;;11.90;2.70;;;19.50;99.90;;;;;;5050516;28;20101;-60
2022/08/03 03:55:47;;;;;;;6.82;2.50;;;19.50;99.90;;;;;;5049422;28;20065;-60
2022/08/03 03:58:13;;;;;;;13.32;2.53;;;19.40;99.90;;;;;;5050219;28;20426;-61
2022/08/03 04:00:41;;;;;;;6.68;2.25;;;19.40;99.90;;;;;;5048498;28;20037;-60
2022/08/03 04:03:08;;;;;;;5.85;2.40;;;19.40;99.90;;;;;;5048240;28;20056;-60
2022/08/03 04:11:10;;;;;;;8.85;2.80;;;19.30;99.90;;;;;;5049343;28;20282;-61
2022/08/03 04:13:48;;;;;;;9.53;2.70;;;19.40;99.90;;;;;;5049281;28;20064;-60
2022/08/03 04:16:15;;;;;;;7.78;2.42;;;19.30;99.90;;;;;;5043547;28;20398;-61
2022/08/03 04:18:47;;;;;;;9.60;2.72;;;19.30;99.90;;;;;;5049292;28;20057;-61
2022/08/03 04:21:15;;;;;;;8.30;2.75;;;19.30;99.90;;;;;;5048379;28;20403;-61
2022/08/03 04:23:45;;;;;;;8.30;2.70;;;19.30;99.90;;;;;;5050025;28;20041;-62
2022/08/03 04:26:14;;;;;;;10.05;3.17;;;19.30;99.90;;;;;;5047602;28;20076;-60
2022/08/03 04:28:44;;;;;;;10.68;3.25;;;19.30;99.90;;;;;;5049733;28;20071;-62
2022/08/03 04:31:12;;;;;;;10.93;2.88;;;19.30;99.90;;;;;;5047239;28;20044;-60
2022/08/03 04:33:40;;;;;;;8.75;3.58;;;19.30;99.90;;;;;;5049755;28;20084;-60
2022/08/03 04:36:09;;;;;;;9.85;3.20;;;19.20;99.90;;;;;;5048891;28;20475;-60
2022/08/03 04:38:53;;;;;;;5.93;2.47;;;19.20;99.90;;;;;;5049919;28;20091;-63
2022/08/03 04:41:22;;;;;;;6.38;2.38;;;19.30;99.90;;;;;;5043000;28;20071;-61
2022/08/03 04:43:50;;;;;;;8.95;2.90;;;19.30;99.90;;;;;;5049636;28;20053;-61
2022/08/03 04:46:17;;;;;;;8.57;2.75;;;19.30;99.90;;;;;;5049491;28;20387;-61
2022/08/03 04:48:45;;;;;;;7.53;2.63;;;19.50;99.90;;;;;;5048254;28;20415;-62
2022/08/03 04:51:12;;;;;;;7.82;2.30;;;19.90;99.90;;;;;;5049277;28;20053;-61
2022/08/03 04:53:37;;;;;;;8.50;2.70;;;20.40;99.90;;;;;;5049683;28;20052;-61
2022/08/03 04:56:04;;;;;;;5.60;2.38;;;20.80;99.90;;;;;;5048722;28;20390;-61
2022/08/03 04:58:30;;;;;;;9.07;2.20;;;21.30;99.90;;;;;;5049799;28;20052;-61
2022/08/03 05:00:56;;;;;;;12.82;2.67;;;21.70;99.90;;;;;;5030200;28;20055;-61
2022/08/03 05:03:21;;;;;;;6.45;2.22;;;22.00;99.90;;;;;;5049748;28;20410;-61
2022/08/03 05:05:47;;;;;;;6.63;2.50;;;22.30;99.90;;;;;;5048244;28;20098;-61
2022/08/03 05:08:13;;;;;;;8.30;2.58;;;22.70;99.90;;;;;;5046602;28;20045;-61
2022/08/03 05:10:39;;;;;;;10.80;3.10;;;23.10;99.90;;;;;;5048978;28;20052;-61
2022/08/03 05:13:05;;;;;;;11.40;3.05;;;23.30;99.90;;;;;;5047763;28;20045;-61
2022/08/03 05:15:30;;;;;;;10.30;2.28;;;23.30;99.90;;;;;;5046964;28;20047;-61
2022/08/03 05:17:56;;;;;;;6.93;2.20;;;23.30;99.90;;;;;;5051998;28;20111;-62
2022/08/03 05:20:22;;;;;;;5.30;1.90;;;23.40;99.90;;;;;;5053444;28;20040;-63
2022/08/03 05:22:47;;;;;;;6.82;2.50;;;23.60;99.90;;;;;;5053084;28;20483;-62
2022/08/03 05:25:13;;;;;;;9.40;2.42;;;23.80;99.90;;;;;;5052155;28;20138;-61
2022/08/03 05:27:39;;;;;;;7.32;2.30;;;24.10;99.90;;;;;;5051865;28;20445;-61
2022/08/03 05:30:05;;;;;;;9.20;2.38;;;24.20;99.90;;;;;;5050771;28;20102;-61
2022/08/03 05:32:30;;;;;;;8.82;2.08;;;24.50;99.90;;;;;;5052993;28;20137;-59
2022/08/03 05:34:56;;;;;;;9.50;2.10;;;24.80;99.90;;;;;;5052586;28;20122;-64
2022/08/03 05:37:22;;;;;;;12.70;2.65;;;25.10;99.90;;;;;;5050833;28;20116;-60
2022/08/03 05:39:47;;;;;;;9.70;2.78;;;25.40;99.90;;;;;;5051205;28;20099;-60
2022/08/03 05:42:15;;;;;;;8.15;2.47;;;25.80;99.90;;;;;;5051044;28;20090;-61
2022/08/03 05:44:40;;;;;;;9.48;2.58;;;26.30;99.90;;;;;;5052732;28;20056;-61
2022/08/03 05:47:06;;;;;;;8.80;1.90;;;26.40;99.90;;;;;;5051836;28;20091;-61
2022/08/03 05:49:32;;;;;;;9.18;2.72;;;26.50;99.90;;;;;;5051256;28;20072;-61
2022/08/03 05:51:58;;;;;;;6.68;2.40;;;26.80;99.90;;;;;;5052497;28;20132;-63
2022/08/03 05:54:24;;;;;;;11.90;2.85;;;27.10;99.90;;;;;;5051900;28;20044;-61
2022/08/03 05:56:50;;;;;;;15.25;2.70;;;27.40;99.90;;;;;;5052379;28;20827;-62
2022/08/03 05:59:15;;;;;;;8.73;2.67;;;27.80;99.90;;;;;;5050773;28;20091;-63
2022/08/03 06:01:41;;;;;;;5.95;2.55;;;28.20;99.90;;;;;;5053115;28;20106;-61
2022/08/03 06:04:07;;;;;;;10.90;2.38;;;28.40;99.90;;;;;;5051770;28;20044;-62
2022/08/03 06:06:32;;;;;;;9.13;2.55;;;28.80;99.90;;;;;;5052165;28;20044;-64
2022/08/03 06:08:58;;;;;;;8.20;2.42;;;29.40;99.90;;;;;;5065636;28;20496;-60
2022/08/03 06:11:24;;;;;;;8.07;2.47;;;29.70;98.30;;;;;;5052702;28;20160;-60
2022/08/03 06:13:49;;;;;;;8.85;2.75;;;29.80;97.80;;;;;;5051969;28;20097;-61
2022/08/03 06:16:15;;;;;;;8.05;2.50;;;29.60;98.60;;;;;;5034031;28;20045;-60
2022/08/03 06:18:41;;;;;;;9.43;2.30;;;29.90;98.70;;;;;;5051351;28;20498;-63
2022/08/03 06:21:07;;;;;;;7.32;2.15;;;30.00;97.40;;;;;;5051784;28;20045;-61
2022/08/03 06:23:33;;;;;;;10.38;2.67;;;30.00;97.90;;;;;;5051979;28;20049;-61
2022/08/03 06:25:58;;;;;;;10.27;2.67;;;30.00;97.40;;;;;;5049996;28;20317;-61
2022/08/03 06:28:24;;;;;;;9.75;2.47;;;30.20;97.20;;;;;;5050797;28;20048;-61
2022/08/03 06:30:50;;;;;;;11.13;2.80;;;30.30;97.00;;;;;;5051375;28;20119;-62
2022/08/03 06:33:15;;;;;;;7.25;2.72;;;30.40;96.60;;;;;;5051346;28;20033;-61
2022/08/03 06:35:41;;;;;;;6.55;2.35;;;30.60;96.80;;;;;;5051421;28;20391;-61
2022/08/03 06:38:07;;;;;;;8.38;2.90;;;30.60;97.00;;;;;;5051231;28;20045;-62
2022/08/03 06:40:38;;;;;;;8.18;2.33;;;30.80;96.70;;;;;;5051373;28;20083;-63
2022/08/03 06:43:05;;;;;;;7.15;2.28;;;31.10;96.40;;;;;;5051560;28;20394;-61
2022/08/03 06:45:32;;;;;;;8.23;2.70;;;31.40;96.30;;;;;;5051388;28;20076;-61
2022/08/03 06:48:09;;;;;;;9.82;2.70;;;31.70;95.30;;;;;;5050109;28;20498;-61
2022/08/03 06:50:36;;;;;;;9.70;2.75;;;32.10;95.20;;;;;;5050909;28;20088;-62
2022/08/03 06:53:03;;;;;;;8.65;2.65;;;32.20;95.00;;;;;;5051588;28;20047;-61
2022/08/03 06:55:29;;;;;;;9.55;2.13;;;32.40;94.50;;;;;;5049409;28;20041;-62
2022/08/03 06:57:55;;;;;;;8.88;2.85;;;32.60;94.30;;;;;;5051124;28;20486;-61
2022/08/03 07:00:21;;;;;;;8.38;2.53;;;32.80;94.50;;;;;;5050458;28;20090;-61
2022/08/03 07:02:47;;;;;;;9.43;2.20;;;33.00;94.10;;;;;;5050821;28;20051;-61
2022/08/03 07:05:13;;;;;;;11.20;2.88;;;33.30;93.50;;;;;;5056336;28;20494;-62
2022/08/03 07:07:39;;;;;;;11.38;2.78;;;33.60;93.50;;;;;;5050640;28;20067;-61
2022/08/03 07:10:06;;;;;;;9.38;2.47;;;33.70;93.00;;;;;;5050759;28;20060;-61
2022/08/03 07:12:32;;;;;;;9.30;2.80;;;33.90;93.10;;;;;;5048331;28;20494;-62
2022/08/03 07:14:59;;;;;;;10.45;2.67;;;34.10;92.80;;;;;;5050110;28;20084;-62
2022/08/03 07:17:25;;;;;;;8.30;2.35;;;34.40;92.50;;;;;;5050422;28;20048;-61
2022/08/03 07:19:51;;;;;;;9.95;2.33;;;34.30;92.10;;;;;;5049174;28;20041;-61
2022/08/03 07:22:17;;;;;;;10.02;2.25;;;34.50;92.00;;;;;;5050524;28;20041;-60
2022/08/03 07:24:43;;;;;;;9.68;2.63;;;34.40;91.80;;;;;;5050406;28;20125;-61
2022/08/03 07:27:09;;;;;;;6.93;2.45;;;34.60;91.90;;;;;;5050278;28;20065;-61
2022/08/03 07:29:36;;;;;;;8.52;2.55;;;34.40;92.20;;;;;;5050342;28;20528;-61
2022/08/03 07:32:03;;;;;;;7.50;2.40;;;34.60;91.60;;;;;;5049144;28;20068;-61
2022/08/03 07:34:29;;;;;;;8.32;2.40;;;34.40;91.70;;;;;;5050015;28;20508;-61
2022/08/03 07:36:54;;;;;;;10.43;2.60;;;34.40;91.60;;;;;;5049704;28;20048;-62
2022/08/03 07:39:20;;;;;;;7.47;2.08;;;34.50;91.80;;;;;;5049431;28;20044;-61
2022/08/03 07:41:46;;;;;;;12.45;2.80;;;34.70;91.50;;;;;;5050310;28;20133;-61
2022/08/03 07:44:12;;;;;;;11.50;2.88;;;34.70;91.50;;;;;;5050488;28;20059;-61
2022/08/03 07:46:38;;;;;;;10.45;2.70;;;34.90;91.40;;;;;;5049453;28;20036;-66
2022/08/03 07:49:04;;;;;;;6.97;2.40;;;34.80;91.40;;;;;;5049809;28;20049;-61
2022/08/03 07:51:29;;;;;;;13.82;3.15;;;34.80;91.50;;;;;;5049546;28;20367;-62
2022/08/03 07:53:56;;;;;;;9.52;2.55;;;34.70;91.10;;;;;;5049265;28;20041;-61
2022/08/03 07:56:26;;;;;;;14.88;3.08;;;34.90;91.30;;;;;;5049377;28;20541;-61
2022/08/03 07:58:53;;;;;;;10.07;3.00;;;35.00;91.00;;;;;;5050316;28;20061;-61
2022/08/03 08:01:19;;;;;;;8.13;2.70;;;35.40;90.70;;;;;;5049875;28;20379;-62
2022/08/03 08:03:45;;;;;;;7.60;2.50;;;35.70;91.00;;;;;;5050240;28;20051;-62
2022/08/03 08:06:12;;;;;;;8.52;2.40;;;36.00;90.40;;;;;;5050713;28;20437;-62
2022/08/03 08:08:38;;;;;;;9.18;2.33;;;36.40;90.50;;;;;;5049830;28;20124;-62
2022/08/03 08:11:04;;;;;;;10.60;2.90;;;36.50;89.80;;;;;;5050049;28;20566;-62
2022/08/03 08:13:30;;;;;;;8.73;2.63;;;36.50;90.00;;;;;;5049178;28;20099;-62
2022/08/03 08:15:56;;;;;;;8.77;2.60;;;36.90;89.10;;;;;;5050064;28;20033;-62
2022/08/03 08:18:22;;;;;;;11.10;2.55;;;37.00;88.70;;;;;;5049833;28;20048;-62
2022/08/03 08:20:49;;;;;;;8.60;2.30;;;37.00;88.30;;;;;;5048895;28;20133;-63
2022/08/03 08:23:21;;;;;;;10.48;3.13;;;36.80;88.90;;;;;;5048894;28;20428;-62
2022/08/03 08:25:47;;;;;;;7.90;2.72;;;36.80;88.00;;;;;;5049797;28;20080;-62
2022/08/03 08:28:13;;;;;;;10.20;2.50;;;36.80;88.10;;;;;;5050123;28;20116;-62
2022/08/03 08:30:39;;;;;;;10.15;2.72;;;36.40;88.70;;;;;;5049444;28;20453;-61
2022/08/03 08:33:04;;;;;;;13.45;2.95;;;36.40;88.60;;;;;;5048398;28;20045;-62
2022/08/03 08:35:30;;;;;;;8.70;2.78;;;36.20;88.50;;;;;;5049487;28;20049;-61
2022/08/03 08:37:58;;;;;;;9.55;2.67;;;36.00;88.90;;;;;;5047454;28;20513;-61
2022/08/03 08:40:24;;;;;;;10.90;2.88;;;36.00;89.00;;;;;;5049275;28;20098;-61
2022/08/03 08:42:49;;;;;;;9.88;2.85;;;36.40;88.50;;;;;;5049738;28;20052;-62
2022/08/03 08:45:17;;;;;;;8.48;2.70;;;36.60;87.90;;;;;;5048387;28;20045;-61
2022/08/03 08:47:45;;;;;;;13.98;2.80;;;36.70;88.20;;;;;;5049210;28;20057;-63
2022/08/03 08:50:11;;;;;;;8.27;2.60;;;36.70;88.30;;;;;;5052494;28;20380;-61
2022/08/03 08:52:40;;;;;;;14.48;3.28;;;36.70;88.40;;;;;;5052064;28;20048;-61
2022/08/03 08:55:08;;;;;;;10.98;2.60;;;36.50;87.70;;;;;;5053652;28;20143;-60
2022/08/03 08:57:46;;;;;;;9.00;2.67;;;36.30;88.00;;;;;;5048243;28;20459;-61
2022/08/03 09:00:13;;;;;;;8.20;3.03;;;36.10;88.20;;;;;;5052180;28;20053;-63
2022/08/03 09:02:41;;;;;;;11.93;3.10;;;36.00;88.30;;;;;;5052530;28;20049;-61
2022/08/03 09:05:13;;;;;;;10.57;3.45;;;35.80;88.00;;;;;;5052972;28;20053;-61
2022/08/03 09:07:40;;;;;;;10.63;2.70;;;35.70;88.60;;;;;;5052866;28;20037;-60
2022/08/03 09:10:10;;;;;;;9.55;2.88;;;35.10;88.90;;;;;;5052614;28;20052;-60
2022/08/03 09:12:42;;;;;;;9.43;2.50;;;34.90;89.20;;;;;;5050700;28;20053;-60
2022/08/03 09:15:16;;;;;;;10.57;2.80;;;34.90;90.00;;;;;;5052741;28;20730;-60
2022/08/03 09:17:42;;;;;;;13.05;2.63;;;34.90;90.20;;;;;;5052716;28;20171;-62
2022/08/03 09:20:08;;;;;;;11.00;2.90;;;35.00;90.10;;;;;;5052705;28;20534;-60
2022/08/03 09:22:35;;;;;;;11.27;3.22;;;35.20;89.90;;;;;;5051769;28;20040;-61
2022/08/03 09:25:10;;;;;;;8.48;2.78;;;35.50;88.90;;;;;;5052951;28;20044;-60
2022/08/03 09:27:43;;;;;;;10.20;2.78;;;35.70;89.00;;;;;;5052502;28;20037;-60
2022/08/03 09:30:17;;;;;;;8.90;2.75;;;35.80;88.30;;;;;;5052722;28;20048;-61
2022/08/03 09:32:44;;;;;;;9.20;2.90;;;35.60;88.30;;;;;;5052364;28;20049;-61
2022/08/03 09:35:12;;;;;;;6.80;2.40;;;35.50;88.50;;;;;;5047097;28;20175;-60
2022/08/03 09:37:38;;;;;;;11.52;3.00;;;35.20;89.30;;;;;;5049171;28;20061;-61
2022/08/03 09:40:05;;;;;;;9.32;2.10;;;35.50;89.10;;;;;;5048072;28;20060;-62
2022/08/03 09:42:33;;;;;;;10.23;2.85;;;35.60;89.30;;;;;;5052012;28;20056;-62
2022/08/03 09:44:59;;;;;;;8.77;3.30;;;35.80;88.70;;;;;;5047783;28;20511;-63
2022/08/03 09:47:30;;;;;;;11.27;3.13;;;36.20;88.10;;;;;;5047938;28;20087;-62
2022/08/03 09:50:03;;;;;;;11.23;3.08;;;35.90;88.30;;;;;;5046882;28;20494;-61
2022/08/03 09:52:31;;;;;;;12.55;3.00;;;35.80;88.60;;;;;;5050254;28;20076;-64
2022/08/03 09:54:59;;;;;;;10.10;3.42;;;35.20;88.40;;;;;;5048911;28;20132;-61
2022/08/03 09:57:26;;;;;;;11.25;2.92;;;34.80;89.00;;;;;;5050042;28;20045;-62
2022/08/03 10:00:04;;;;;;;10.60;2.92;;;34.60;89.70;;;;;;5050677;28;20105;-61
2022/08/03 10:02:29;;;;;;;9.52;3.08;;;34.40;90.00;;;;;;5051297;28;20048;-61
2022/08/03 10:04:55;;;;;;;9.05;2.90;;;34.10;90.10;;;;;;5050550;28;20574;-61
2022/08/03 10:07:23;;;;;;;8.35;3.20;;;33.90;90.20;;;;;;5048505;28;20040;-61
2022/08/03 10:09:58;;;;;;;7.80;3.00;;;33.70;90.30;;;;;;5051233;28;20045;-61
2022/08/03 10:12:24;;;;;;;13.68;3.30;;;33.40;90.40;;;;;;5051533;28;20045;-62
2022/08/03 10:14:51;;;;;;;12.00;3.25;;;33.30;90.70;;;;;;5049030;28;20037;-61
2022/08/03 10:17:18;;;;;;;11.85;3.25;;;33.00;91.00;;;;;;5051188;28;20206;-63
2022/08/03 10:19:44;;;;;;;9.20;2.58;;;32.80;91.20;;;;;;5031394;28;20056;-63
2022/08/03 10:22:13;;;;;;;8.68;2.85;;;32.70;91.80;;;;;;5046941;28;20727;-61
2022/08/03 10:25:04;;;;;;;8.90;2.90;;;32.80;91.50;;;;;;5045640;28;20044;-66
2022/08/03 10:27:36;;;;;;;9.63;3.35;;;32.70;91.50;;;;;;5044582;28;20056;-60
2022/08/03 10:30:05;;;;;;;13.27;3.23;;;32.50;91.40;;;;;;5051168;28;20063;-62
2022/08/03 10:32:35;;;;;;;11.57;3.28;;;32.40;91.90;;;;;;5046875;28;20291;-62
2022/08/03 10:35:22;;;;;;;10.80;3.42;;;32.30;91.60;;;;;;5047068;28;20045;-61
2022/08/03 10:37:57;;;;;;;8.73;3.22;;;32.40;92.20;;;;;;5043387;28;20052;-62
2022/08/03 10:40:23;;;;;;;14.13;3.55;;;32.40;91.80;;;;;;5050805;28;20261;-62
2022/08/03 10:42:53;;;;;;;11.88;3.33;;;32.40;92.10;;;;;;5050509;28;20161;-61
2022/08/03 10:45:29;;;;;;;12.60;3.25;;;32.50;91.80;;;;;;5050378;28;20394;-61
2022/08/03 10:47:56;;;;;;;11.15;3.13;;;32.50;92.00;;;;;;5040485;28;20059;-62
2022/08/03 10:50:24;;;;;;;10.20;3.70;;;32.30;91.60;;;;;;5047837;28;20585;-62
2022/08/03 10:53:05;;;;;;;12.55;3.10;;;32.20;91.90;;;;;;5044982;28;20097;-61
2022/08/03 10:58:44;;;;;;;10.00;3.10;;;32.20;92.10;;;;;;5044655;28;20048;-63
2022/08/03 11:01:11;;;;;;;10.02;3.13;;;32.40;91.90;;;;;;5039839;28;20151;-62
2022/08/03 11:03:51;;;;;;;9.57;3.53;;;32.40;91.90;;;;;;5051645;28;20440;-62
2022/08/03 11:06:25;;;;;;;11.65;3.60;;;32.20;91.50;;;;;;5046853;28;20044;-62
2022/08/03 11:09:09;;;;;;;13.40;3.45;;;32.20;91.60;;;;;;5039921;28;20049;-63
2022/08/03 11:11:40;;;;;;;15.65;4.18;;;32.10;91.20;;;;;;5040327;28;20052;-62
2022/08/03 11:14:14;;;;;;;11.93;3.28;;;32.20;91.70;;;;;;5047548;28;20065;-62
2022/08/03 11:16:44;;;;;;;12.85;3.33;;;32.20;91.60;;;;;;5049971;28;20091;-62
2022/08/03 11:19:26;;;;;;;12.02;4.40;;;32.20;91.80;;;;;;5050406;28;20088;-61
2022/08/03 11:21:53;;;;;;;12.10;4.30;;;32.20;91.50;;;;;;5040619;28;20041;-62
2022/08/03 11:24:50;;;;;;;13.82;4.03;;;32.10;92.00;;;;;;5049395;28;20048;-63
2022/08/03 11:27:15;;;;;;;15.13;4.10;;;32.00;91.10;;;;;;5047021;28;20107;-63
2022/08/03 11:29:59;;;;;;;10.23;3.70;;;31.90;91.60;;;;;;5048694;28;20142;-63
2022/08/03 11:32:36;;;;;;;14.77;3.92;;;31.80;91.60;;;;;;5050220;28;20399;-61
2022/08/03 11:35:08;;;;;;;16.17;4.00;;;31.80;91.70;;;;;;5049484;28;20513;-61
2022/08/03 11:37:34;;;;;;;15.85;4.22;;;31.90;91.70;;;;;;5048951;28;20080;-62
2022/08/03 11:40:00;;;;;;;14.73;4.00;;;31.90;91.40;;;;;;5048426;28;20490;-61
2022/08/03 11:42:27;;;;;;;11.68;4.00;;;31.80;91.10;;;;;;5049196;28;20405;-62
2022/08/03 11:44:58;;;;;;;18.23;4.10;;;31.70;91.60;;;;;;5048737;28;20053;-64
2022/08/03 11:47:27;;;;;;;15.32;4.18;;;31.70;91.60;;;;;;5048664;28;20116;-62
2022/08/03 11:49:57;;;;;;;16.98;4.07;;;31.60;91.50;;;;;;5047760;28;20128;-62
2022/08/03 11:52:24;;;;;;;14.32;4.07;;;31.50;91.90;;;;;;5046022;28;20509;-66
2022/08/03 11:54:51;;;;;;;15.88;3.97;;;31.40;92.10;;;;;;5049565;28;20045;-63
2022/08/03 11:57:33;;;;;;;15.25;4.68;;;31.50;92.00;;;;;;5048999;28;20076;-62
2022/08/03 11:59:59;;;;;;;10.50;4.07;;;31.60;91.50;;;;;;5044681;28;20090;-61
2022/08/03 12:02:25;;;;;;;14.32;4.63;;;31.50;92.10;;;;;;5054523;28;20119;-61
2022/08/03 12:04:52;;;;;;;14.40;4.60;;;31.50;92.10;;;;;;5048375;28;20554;-62
2022/08/03 12:07:18;;;;;;;18.08;5.07;;;31.60;91.90;;;;;;5049449;28;20159;-61
2022/08/03 12:10:05;;;;;;;14.20;4.90;;;31.60;91.60;;;;;;5050015;28;20057;-61
2022/08/03 12:12:31;;;;;;;19.08;4.88;;;31.40;92.50;;;;;;5048166;28;20036;-61
2022/08/03 12:14:57;;;;;;;11.88;4.53;;;31.40;92.20;;;;;;5048631;28;20072;-62
2022/08/03 12:17:23;;;;;;;17.10;4.32;;;31.40;92.00;;;;;;5042005;28;20113;-62
2022/08/03 12:19:49;;;;;;;21.25;4.78;;;31.40;92.10;;;;;;5046747;28;20072;-66
2022/08/03 12:22:15;;;;;;;22.10;4.85;;;31.40;92.20;;;;;;5049375;28;20037;-60
2022/08/03 12:24:43;;;;;;;14.20;4.13;;;31.30;92.40;;;;;;5048450;28;20300;-61
2022/08/03 12:27:08;;;;;;;14.95;4.63;;;31.40;92.70;;;;;;5060365;28;20131;-61
2022/08/03 12:29:34;;;;;;;15.93;4.53;;;31.30;92.40;;;;;;5051827;28;20455;-61
2022/08/03 12:32:00;;;;;;;15.13;3.92;;;31.30;92.50;;;;;;5053098;28;20045;-61
2022/08/03 12:34:45;;;;;;;16.83;4.18;;;31.30;91.90;;;;;;5052976;28;20380;-62
2022/08/03 12:37:11;;;;;;;13.38;4.45;;;31.30;92.40;;;;;;5051084;28;20037;-61
2022/08/03 12:39:37;;;;;;;18.88;4.78;;;31.30;92.30;;;;;;5052782;28;20045;-62
2022/08/03 12:49:09;;;;;;;15.70;4.13;;;31.30;91.60;;;;;;5223103;23;20586;-62
2022/08/03 12:51:53;;;;;;;14.40;4.05;;;31.20;92.00;;;;;;5001526;28;20133;-61
2022/08/03 12:54:21;;;;;;;13.18;4.03;;;31.20;91.80;;;;;;5002986;28;20097;-62
2022/08/03 12:57:16;;;;;;;16.58;4.25;;;31.30;91.70;;;;;;5010162;28;20126;-62
2022/08/03 12:59:47;;;;;;;18.98;4.78;;;31.20;91.90;;;;;;5000026;28;20100;-61
2022/08/03 13:02:24;;;;;;;15.73;4.30;;;31.20;92.00;;;;;;5000939;28;20049;-61
2022/08/03 13:04:52;;;;;;;13.88;4.25;;;31.10;92.10;;;;;;4999766;28;20057;-62
2022/08/03 13:07:19;;;;;;;14.82;4.25;;;31.10;92.20;;;;;;5025067;28;20038;-61